createdAt,value
2018-12-05T00:00:05.011Z,6.437376
2018-12-05T00:00:17.436Z,8.04672
2018-12-05T00:00:29.842Z,9.656064
2018-12-05T00:00:42.248Z,11.265408
2018-12-05T00:00:54.636Z,11.265408
2018-12-05T00:01:07.024Z,1.609344
2018-12-05T00:01:19.385Z,1.609344
2018-12-05T00:01:31.770Z,1.609344
2018-12-05T00:01:44.155Z,1.609344
2018-12-05T00:01:56.525Z,6.437376
2018-12-05T00:02:08.960Z,8.04672
2018-12-05T00:02:21.319Z,11.265408
2018-12-05T00:02:33.725Z,11.265408
2018-12-05T00:02:46.115Z,11.265408
2018-12-05T00:02:58.490Z,11.265408
2018-12-05T00:03:10.960Z,8.04672
2018-12-05T00:03:23.347Z,8.04672
2018-12-05T00:03:35.733Z,9.656064
2018-12-05T00:03:48.147Z,9.656064
2018-12-05T00:04:00.520Z,11.265408
2018-12-05T00:04:12.904Z,12.874752
2018-12-05T00:04:25.290Z,12.874752
2018-12-05T00:04:37.682Z,14.484096
2018-12-05T00:04:50.182Z,14.484096
2018-12-05T00:05:02.714Z,14.484096
2018-12-05T00:05:15.128Z,11.265408
2018-12-05T00:05:27.603Z,11.265408
2018-12-05T00:05:39.982Z,11.265408
2018-12-05T00:05:52.389Z,11.265408
2018-12-05T00:06:04.827Z,4.828032
2018-12-05T00:06:17.230Z,6.437376
2018-12-05T00:06:29.598Z,9.656064
2018-12-05T00:06:41.980Z,9.656064
2018-12-05T00:06:54.355Z,9.656064
2018-12-05T00:07:06.719Z,9.656064
2018-12-05T00:07:19.071Z,9.656064
2018-12-05T00:07:31.454Z,9.656064
2018-12-05T00:07:43.903Z,9.656064
2018-12-05T00:07:56.290Z,9.656064
2018-12-05T00:08:08.701Z,6.437376
2018-12-05T00:08:21.107Z,6.437376
2018-12-05T00:08:33.483Z,9.656064
2018-12-05T00:08:45.879Z,9.656064
2018-12-05T00:08:58.267Z,9.656064
2018-12-05T00:09:10.664Z,4.828032
2018-12-05T00:09:23.021Z,6.437376
2018-12-05T00:09:35.393Z,6.437376
2018-12-05T00:09:47.783Z,9.656064
2018-12-05T00:10:00.151Z,9.656064
2018-12-05T00:10:12.526Z,4.828032
2018-12-05T00:10:24.910Z,8.04672
2018-12-05T00:10:37.289Z,8.04672
2018-12-05T00:10:49.679Z,8.04672
2018-12-05T00:11:02.076Z,8.04672
2018-12-05T00:11:14.463Z,3.218688
2018-12-05T00:11:26.854Z,8.04672
2018-12-05T00:11:40.925Z,12.874752
2018-12-05T00:11:53.313Z,12.874752
2018-12-05T00:12:05.733Z,4.828032
2018-12-05T00:12:18.128Z,4.828032
2018-12-05T00:12:30.533Z,8.04672
2018-12-05T00:12:42.931Z,8.04672
2018-12-05T00:12:55.318Z,8.04672
2018-12-05T00:13:07.692Z,1.609344
2018-12-05T00:13:20.074Z,6.437376
2018-12-05T00:13:32.471Z,8.04672
2018-12-05T00:13:44.942Z,8.04672
2018-12-05T00:13:57.320Z,8.04672
2018-12-05T00:14:09.729Z,0
2018-12-05T00:14:22.154Z,1.609344
2018-12-05T00:14:34.561Z,8.04672
2018-12-05T00:14:47.084Z,8.04672
2018-12-05T00:14:59.468Z,11.265408
2018-12-05T00:15:11.889Z,9.656064
2018-12-05T00:15:24.277Z,9.656064
2018-12-05T00:15:36.681Z,9.656064
2018-12-05T00:15:49.074Z,9.656064
2018-12-05T00:16:01.447Z,9.656064
2018-12-05T00:16:13.822Z,9.656064
2018-12-05T00:16:26.192Z,9.656064
2018-12-05T00:16:38.562Z,9.656064
2018-12-05T00:16:50.965Z,9.656064
2018-12-05T00:17:03.373Z,9.656064
2018-12-05T00:17:15.764Z,3.218688
2018-12-05T00:17:28.133Z,8.04672
2018-12-05T00:17:41.615Z,9.656064
2018-12-05T00:17:54.020Z,9.656064
2018-12-05T00:18:06.552Z,3.218688
2018-12-05T00:18:18.940Z,3.218688
2018-12-05T00:18:31.330Z,4.828032
2018-12-05T00:18:43.728Z,6.437376
2018-12-05T00:18:56.116Z,11.265408
2018-12-05T00:19:08.508Z,8.04672
2018-12-05T00:19:20.883Z,9.656064
2018-12-05T00:19:33.264Z,9.656064
2018-12-05T00:19:45.646Z,9.656064
2018-12-05T00:19:58.041Z,9.656064
2018-12-05T00:20:10.436Z,1.609344
2018-12-05T00:20:22.833Z,3.218688
2018-12-05T00:20:35.394Z,9.656064
2018-12-05T00:20:47.854Z,11.265408
2018-12-05T00:21:00.246Z,11.265408
2018-12-05T00:21:12.614Z,8.04672
2018-12-05T00:21:25.068Z,14.484096
2018-12-05T00:21:37.438Z,14.484096
2018-12-05T00:21:49.822Z,14.484096
2018-12-05T00:22:02.213Z,14.484096
2018-12-05T00:22:14.610Z,6.437376
2018-12-05T00:22:26.987Z,6.437376
2018-12-05T00:22:39.585Z,6.437376
2018-12-05T00:22:51.992Z,8.04672
2018-12-05T00:23:04.363Z,8.04672
2018-12-05T00:23:16.733Z,8.04672
2018-12-05T00:23:29.136Z,8.04672
2018-12-05T00:23:41.501Z,8.04672
2018-12-05T00:23:53.885Z,8.04672
2018-12-05T00:24:06.288Z,3.218688
2018-12-05T00:24:20.219Z,4.828032
2018-12-05T00:24:32.617Z,6.437376
2018-12-05T00:24:45.082Z,6.437376
2018-12-05T00:24:57.668Z,6.437376
2018-12-05T00:25:10.306Z,9.656064
2018-12-05T00:25:22.769Z,9.656064
2018-12-05T00:25:35.292Z,9.656064
2018-12-05T00:25:47.665Z,9.656064
2018-12-05T00:26:00.041Z,9.656064
2018-12-05T00:26:12.654Z,16.09344
2018-12-05T00:26:25.032Z,16.09344
2018-12-05T00:26:37.428Z,16.09344
2018-12-05T00:26:49.947Z,16.09344
2018-12-05T00:27:02.352Z,16.09344
2018-12-05T00:27:14.746Z,8.04672
2018-12-05T00:27:27.139Z,8.04672
2018-12-05T00:27:39.565Z,8.04672
2018-12-05T00:27:52.093Z,8.04672
2018-12-05T00:28:04.469Z,8.04672
2018-12-05T00:28:17.151Z,3.218688
2018-12-05T00:28:29.542Z,3.218688
2018-12-05T00:28:41.926Z,3.218688
2018-12-05T00:28:54.315Z,6.437376
2018-12-05T00:29:06.721Z,9.656064
2018-12-05T00:29:19.102Z,9.656064
2018-12-05T00:29:31.620Z,9.656064
2018-12-05T00:29:44.009Z,11.265408
2018-12-05T00:29:56.417Z,11.265408
2018-12-05T00:30:08.880Z,11.265408
2018-12-05T00:30:21.258Z,11.265408
2018-12-05T00:30:33.899Z,11.265408
2018-12-05T00:30:46.279Z,11.265408
2018-12-05T00:30:58.655Z,11.265408
2018-12-05T00:31:11.027Z,3.218688
2018-12-05T00:31:23.396Z,3.218688
2018-12-05T00:31:35.788Z,4.828032
2018-12-05T00:31:48.194Z,4.828032
2018-12-05T00:32:00.569Z,4.828032
2018-12-05T00:32:12.948Z,6.437376
2018-12-05T00:32:25.308Z,9.656064
2018-12-05T00:32:37.691Z,9.656064
2018-12-05T00:32:50.163Z,9.656064
2018-12-05T00:33:02.524Z,9.656064
2018-12-05T00:33:14.909Z,6.437376
2018-12-05T00:33:27.287Z,6.437376
2018-12-05T00:33:39.655Z,6.437376
2018-12-05T00:33:52.025Z,6.437376
2018-12-05T00:34:04.393Z,1.609344
2018-12-05T00:34:16.775Z,3.218688
2018-12-05T00:34:29.133Z,6.437376
2018-12-05T00:34:41.503Z,12.874752
2018-12-05T00:34:53.866Z,12.874752
2018-12-05T00:35:06.540Z,3.218688
2018-12-05T00:35:18.964Z,3.218688
2018-12-05T00:35:31.375Z,3.218688
2018-12-05T00:35:43.745Z,3.218688
2018-12-05T00:35:56.142Z,8.04672
2018-12-05T00:36:08.513Z,3.218688
2018-12-05T00:36:20.900Z,3.218688
2018-12-05T00:36:33.449Z,8.04672
2018-12-05T00:36:45.823Z,8.04672
2018-12-05T00:36:58.198Z,8.04672
2018-12-05T00:37:10.569Z,1.609344
2018-12-05T00:37:22.933Z,3.218688
2018-12-05T00:37:35.307Z,3.218688
2018-12-05T00:37:47.676Z,4.828032
2018-12-05T00:38:00.052Z,8.04672
2018-12-05T00:38:12.411Z,9.656064
2018-12-05T00:38:24.799Z,9.656064
2018-12-05T00:38:37.299Z,9.656064
2018-12-05T00:38:49.672Z,9.656064
2018-12-05T00:39:02.027Z,9.656064
2018-12-05T00:39:14.404Z,1.609344
2018-12-05T00:39:26.783Z,3.218688
2018-12-05T00:39:39.173Z,3.218688
2018-12-05T00:39:52.721Z,3.218688
2018-12-05T00:40:05.174Z,0
2018-12-05T00:40:17.583Z,4.828032
2018-12-05T00:40:30.067Z,8.04672
2018-12-05T00:40:42.471Z,8.04672
2018-12-05T00:40:55.027Z,8.04672
2018-12-05T00:41:07.694Z,6.437376
2018-12-05T00:41:20.087Z,6.437376
2018-12-05T00:41:32.473Z,6.437376
2018-12-05T00:41:44.886Z,6.437376
2018-12-05T00:41:57.271Z,6.437376
2018-12-05T00:42:09.674Z,3.218688
2018-12-05T00:42:22.043Z,4.828032
2018-12-05T00:42:34.422Z,6.437376
2018-12-05T00:42:46.826Z,6.437376
2018-12-05T00:42:59.219Z,6.437376
2018-12-05T00:43:11.594Z,6.437376
2018-12-05T00:43:23.984Z,6.437376
2018-12-05T00:43:36.353Z,6.437376
2018-12-05T00:43:48.730Z,6.437376
2018-12-05T00:44:01.145Z,8.04672
2018-12-05T00:44:13.537Z,6.437376
2018-12-05T00:44:25.894Z,6.437376
2018-12-05T00:44:38.269Z,6.437376
2018-12-05T00:44:50.742Z,6.437376
2018-12-05T00:45:03.290Z,6.437376
2018-12-05T00:45:15.665Z,6.437376
2018-12-05T00:45:28.400Z,6.437376
2018-12-05T00:45:40.774Z,6.437376
2018-12-05T00:45:53.153Z,6.437376
2018-12-05T00:46:05.536Z,6.437376
2018-12-05T00:46:17.926Z,6.437376
2018-12-05T00:46:30.320Z,9.656064
2018-12-05T00:46:42.689Z,9.656064
2018-12-05T00:46:55.069Z,9.656064
2018-12-05T00:47:07.453Z,6.437376
2018-12-05T00:47:19.912Z,9.656064
2018-12-05T00:47:32.281Z,9.656064
2018-12-05T00:47:44.666Z,9.656064
2018-12-05T00:47:57.123Z,9.656064
2018-12-05T00:48:09.494Z,1.609344
2018-12-05T00:48:21.864Z,4.828032
2018-12-05T00:48:34.257Z,4.828032
2018-12-05T00:48:46.728Z,4.828032
2018-12-05T00:48:59.111Z,4.828032
2018-12-05T00:49:11.513Z,3.218688
2018-12-05T00:49:23.945Z,3.218688
2018-12-05T00:49:36.347Z,3.218688
2018-12-05T00:49:48.709Z,3.218688
2018-12-05T00:50:01.301Z,3.218688
2018-12-05T00:50:13.673Z,9.656064
2018-12-05T00:50:26.062Z,9.656064
2018-12-05T00:50:38.440Z,9.656064
2018-12-05T00:50:50.887Z,11.265408
2018-12-05T00:51:03.256Z,11.265408
2018-12-05T00:51:15.787Z,9.656064
2018-12-05T00:51:28.146Z,9.656064
2018-12-05T00:51:40.516Z,9.656064
2018-12-05T00:51:53.034Z,9.656064
2018-12-05T00:52:05.395Z,3.218688
2018-12-05T00:52:17.767Z,3.218688
2018-12-05T00:52:30.143Z,6.437376
2018-12-05T00:52:42.513Z,6.437376
2018-12-05T00:52:54.893Z,6.437376
2018-12-05T00:53:07.269Z,1.609344
2018-12-05T00:53:19.671Z,1.609344
2018-12-05T00:53:32.052Z,1.609344
2018-12-05T00:53:44.424Z,1.609344
2018-12-05T00:53:56.881Z,6.437376
2018-12-05T00:54:09.256Z,4.828032
2018-12-05T00:54:21.648Z,4.828032
2018-12-05T00:54:34.027Z,4.828032
2018-12-05T00:54:48.229Z,4.828032
2018-12-05T00:55:00.659Z,4.828032
2018-12-05T00:55:13.041Z,4.828032
2018-12-05T00:55:25.439Z,4.828032
2018-12-05T00:55:37.825Z,4.828032
2018-12-05T00:55:50.353Z,4.828032
2018-12-05T00:56:02.725Z,4.828032
2018-12-05T00:56:15.102Z,1.609344
2018-12-05T00:56:27.544Z,8.04672
2018-12-05T00:56:39.971Z,8.04672
2018-12-05T00:56:52.359Z,8.04672
2018-12-05T00:57:04.739Z,3.218688
2018-12-05T00:57:17.100Z,3.218688
2018-12-05T00:57:29.473Z,3.218688
2018-12-05T00:57:41.865Z,3.218688
2018-12-05T00:57:54.258Z,3.218688
2018-12-05T00:58:06.686Z,6.437376
2018-12-05T00:58:19.056Z,6.437376
2018-12-05T00:58:31.543Z,8.04672
2018-12-05T00:58:43.921Z,8.04672
2018-12-05T00:58:56.315Z,8.04672
2018-12-05T00:59:08.692Z,1.609344
2018-12-05T00:59:21.074Z,4.828032
2018-12-05T00:59:33.541Z,6.437376
2018-12-05T00:59:45.907Z,9.656064
2018-12-05T00:59:58.420Z,9.656064
2018-12-05T01:00:10.793Z,6.437376
2018-12-05T01:00:23.181Z,6.437376
2018-12-05T01:00:35.588Z,8.04672
2018-12-05T01:00:48.040Z,9.656064
2018-12-05T01:01:00.436Z,9.656064
2018-12-05T01:01:12.831Z,6.437376
2018-12-05T01:01:25.224Z,6.437376
2018-12-05T01:01:37.676Z,6.437376
2018-12-05T01:01:50.060Z,6.437376
2018-12-05T01:02:02.439Z,6.437376
2018-12-05T01:02:14.817Z,3.218688
2018-12-05T01:02:27.210Z,8.04672
2018-12-05T01:02:39.580Z,9.656064
2018-12-05T01:02:51.947Z,9.656064
2018-12-05T01:03:04.344Z,9.656064
2018-12-05T01:03:16.700Z,6.437376
2018-12-05T01:03:29.176Z,6.437376
2018-12-05T01:03:41.547Z,8.04672
2018-12-05T01:03:53.929Z,8.04672
2018-12-05T01:04:06.284Z,3.218688
2018-12-05T01:04:18.675Z,3.218688
2018-12-05T01:04:31.049Z,6.437376
2018-12-05T01:04:43.425Z,9.656064
2018-12-05T01:04:56.078Z,9.656064
2018-12-05T01:05:10.192Z,9.656064
2018-12-05T01:05:22.580Z,9.656064
2018-12-05T01:05:34.956Z,9.656064
2018-12-05T01:05:47.475Z,9.656064
2018-12-05T01:05:59.858Z,11.265408
2018-12-05T01:06:12.227Z,8.04672
2018-12-05T01:06:24.603Z,8.04672
2018-12-05T01:06:36.981Z,8.04672
2018-12-05T01:06:49.357Z,8.04672
2018-12-05T01:07:01.717Z,11.265408
2018-12-05T01:07:14.095Z,8.04672
2018-12-05T01:07:26.472Z,8.04672
2018-12-05T01:07:38.832Z,11.265408
2018-12-05T01:07:51.208Z,11.265408
2018-12-05T01:08:03.581Z,11.265408
2018-12-05T01:08:15.964Z,9.656064
2018-12-05T01:08:28.333Z,9.656064
2018-12-05T01:08:40.709Z,9.656064
2018-12-05T01:08:53.078Z,9.656064
2018-12-05T01:09:05.439Z,8.04672
2018-12-05T01:09:17.820Z,8.04672
2018-12-05T01:09:30.194Z,8.04672
2018-12-05T01:09:42.663Z,8.04672
2018-12-05T01:09:55.050Z,8.04672
2018-12-05T01:10:07.423Z,1.609344
2018-12-05T01:10:19.812Z,1.609344
2018-12-05T01:10:32.197Z,9.656064
2018-12-05T01:10:44.599Z,9.656064
2018-12-05T01:10:56.975Z,9.656064
2018-12-05T01:11:09.509Z,6.437376
2018-12-05T01:11:21.902Z,6.437376
2018-12-05T01:11:34.283Z,8.04672
2018-12-05T01:11:46.667Z,8.04672
2018-12-05T01:11:59.063Z,8.04672
2018-12-05T01:12:11.433Z,1.609344
2018-12-05T01:12:23.818Z,8.04672
2018-12-05T01:12:36.247Z,11.265408
2018-12-05T01:12:48.639Z,11.265408
2018-12-05T01:13:01.092Z,11.265408
2018-12-05T01:13:13.560Z,8.04672
2018-12-05T01:13:26.033Z,9.656064
2018-12-05T01:13:38.513Z,9.656064
2018-12-05T01:13:50.900Z,9.656064
2018-12-05T01:14:03.300Z,9.656064
2018-12-05T01:14:15.676Z,6.437376
2018-12-05T01:14:28.068Z,11.265408
2018-12-05T01:14:40.436Z,12.874752
2018-12-05T01:14:53.010Z,12.874752
2018-12-05T01:15:07.030Z,3.218688
2018-12-05T01:15:19.421Z,3.218688
2018-12-05T01:15:31.921Z,3.218688
2018-12-05T01:15:44.519Z,8.04672
2018-12-05T01:15:56.916Z,8.04672
2018-12-05T01:16:09.303Z,9.656064
2018-12-05T01:16:21.696Z,9.656064
2018-12-05T01:16:34.100Z,9.656064
2018-12-05T01:16:46.482Z,9.656064
2018-12-05T01:16:58.850Z,9.656064
2018-12-05T01:17:11.309Z,3.218688
2018-12-05T01:17:23.690Z,3.218688
2018-12-05T01:17:36.130Z,3.218688
2018-12-05T01:17:48.521Z,8.04672
2018-12-05T01:18:00.892Z,9.656064
2018-12-05T01:18:13.278Z,11.265408
2018-12-05T01:18:25.652Z,11.265408
2018-12-05T01:18:38.020Z,11.265408
2018-12-05T01:18:50.428Z,11.265408
2018-12-05T01:19:02.816Z,11.265408
2018-12-05T01:19:15.278Z,8.04672
2018-12-05T01:19:27.724Z,8.04672
2018-12-05T01:19:40.151Z,8.04672
2018-12-05T01:19:52.518Z,8.04672
2018-12-05T01:20:04.902Z,4.828032
2018-12-05T01:20:17.362Z,4.828032
2018-12-05T01:20:29.879Z,8.04672
2018-12-05T01:20:42.322Z,8.04672
2018-12-05T01:20:54.697Z,8.04672
2018-12-05T01:21:07.091Z,0
2018-12-05T01:21:19.476Z,3.218688
2018-12-05T01:21:31.854Z,6.437376
2018-12-05T01:21:44.238Z,6.437376
2018-12-05T01:21:56.642Z,8.04672
2018-12-05T01:22:09.034Z,3.218688
2018-12-05T01:22:21.398Z,6.437376
2018-12-05T01:22:33.757Z,6.437376
2018-12-05T01:22:46.195Z,6.437376
2018-12-05T01:22:58.568Z,6.437376
2018-12-05T01:23:10.931Z,1.609344
2018-12-05T01:23:23.403Z,8.04672
2018-12-05T01:23:35.771Z,9.656064
2018-12-05T01:23:48.124Z,9.656064
2018-12-05T01:24:00.480Z,9.656064
2018-12-05T01:24:12.853Z,1.609344
2018-12-05T01:24:25.223Z,1.609344
2018-12-05T01:24:37.598Z,3.218688
2018-12-05T01:24:49.942Z,4.828032
2018-12-05T01:25:02.330Z,9.656064
2018-12-05T01:25:14.994Z,11.265408
2018-12-05T01:25:27.562Z,11.265408
2018-12-05T01:25:39.939Z,11.265408
2018-12-05T01:25:52.348Z,11.265408
2018-12-05T01:26:04.709Z,1.609344
2018-12-05T01:26:17.200Z,4.828032
2018-12-05T01:26:29.625Z,11.265408
2018-12-05T01:26:42.042Z,11.265408
2018-12-05T01:26:54.581Z,11.265408
2018-12-05T01:27:06.947Z,8.04672
2018-12-05T01:27:19.315Z,8.04672
2018-12-05T01:27:31.704Z,8.04672
2018-12-05T01:27:44.170Z,9.656064
2018-12-05T01:27:56.588Z,9.656064
2018-12-05T01:28:09.211Z,9.656064
2018-12-05T01:28:21.600Z,9.656064
2018-12-05T01:28:33.982Z,9.656064
2018-12-05T01:28:46.383Z,9.656064
2018-12-05T01:28:58.735Z,9.656064
2018-12-05T01:29:11.106Z,6.437376
2018-12-05T01:29:23.606Z,8.04672
2018-12-05T01:29:35.994Z,8.04672
2018-12-05T01:29:48.360Z,9.656064
2018-12-05T01:30:00.838Z,9.656064
2018-12-05T01:30:13.205Z,8.04672
2018-12-05T01:30:25.718Z,8.04672
2018-12-05T01:30:38.166Z,8.04672
2018-12-05T01:30:50.552Z,8.04672
2018-12-05T01:31:02.905Z,8.04672
2018-12-05T01:31:15.288Z,8.04672
2018-12-05T01:31:27.706Z,9.656064
2018-12-05T01:31:40.071Z,9.656064
2018-12-05T01:31:52.451Z,9.656064
2018-12-05T01:32:04.842Z,6.437376
2018-12-05T01:32:17.279Z,6.437376
2018-12-05T01:32:29.634Z,6.437376
2018-12-05T01:32:42.107Z,9.656064
2018-12-05T01:32:54.502Z,11.265408
2018-12-05T01:33:06.873Z,9.656064
2018-12-05T01:33:20.965Z,9.656064
2018-12-05T01:33:33.384Z,12.874752
2018-12-05T01:33:45.761Z,12.874752
2018-12-05T01:33:58.117Z,12.874752
2018-12-05T01:34:10.528Z,8.04672
2018-12-05T01:34:22.915Z,9.656064
2018-12-05T01:34:35.330Z,9.656064
2018-12-05T01:34:47.701Z,9.656064
2018-12-05T01:35:00.081Z,9.656064
2018-12-05T01:35:12.471Z,6.437376
2018-12-05T01:35:24.846Z,6.437376
2018-12-05T01:35:37.317Z,6.437376
2018-12-05T01:35:49.703Z,6.437376
2018-12-05T01:36:02.069Z,8.04672
2018-12-05T01:36:14.438Z,8.04672
2018-12-05T01:36:26.959Z,8.04672
2018-12-05T01:36:39.351Z,8.04672
2018-12-05T01:36:51.739Z,8.04672
2018-12-05T01:37:04.119Z,8.04672
2018-12-05T01:37:16.561Z,3.218688
2018-12-05T01:37:28.931Z,3.218688
2018-12-05T01:37:41.300Z,8.04672
2018-12-05T01:37:53.685Z,8.04672
2018-12-05T01:38:06.068Z,6.437376
2018-12-05T01:38:18.449Z,6.437376
2018-12-05T01:38:30.927Z,6.437376
2018-12-05T01:38:43.404Z,6.437376
2018-12-05T01:38:55.826Z,6.437376
2018-12-05T01:39:08.198Z,3.218688
2018-12-05T01:39:20.648Z,6.437376
2018-12-05T01:39:33.030Z,6.437376
2018-12-05T01:39:45.512Z,6.437376
2018-12-05T01:39:57.904Z,6.437376
2018-12-05T01:40:10.291Z,3.218688
2018-12-05T01:40:22.660Z,8.04672
2018-12-05T01:40:35.045Z,8.04672
2018-12-05T01:40:47.685Z,8.04672
2018-12-05T01:41:00.205Z,8.04672
2018-12-05T01:41:12.865Z,6.437376
2018-12-05T01:41:25.248Z,6.437376
2018-12-05T01:41:37.629Z,6.437376
2018-12-05T01:41:50.014Z,6.437376
2018-12-05T01:42:02.396Z,9.656064
2018-12-05T01:42:14.790Z,9.656064
2018-12-05T01:42:27.157Z,9.656064
2018-12-05T01:42:39.536Z,9.656064
2018-12-05T01:42:51.896Z,9.656064
2018-12-05T01:43:04.282Z,9.656064
2018-12-05T01:43:16.665Z,3.218688
2018-12-05T01:43:29.043Z,3.218688
2018-12-05T01:43:41.420Z,6.437376
2018-12-05T01:43:53.817Z,6.437376
2018-12-05T01:44:06.204Z,1.609344
2018-12-05T01:44:18.592Z,1.609344
2018-12-05T01:44:30.963Z,4.828032
2018-12-05T01:44:43.332Z,4.828032
2018-12-05T01:44:55.770Z,4.828032
2018-12-05T01:45:08.193Z,3.218688
2018-12-05T01:45:20.603Z,3.218688
2018-12-05T01:45:32.988Z,3.218688
2018-12-05T01:45:45.361Z,3.218688
2018-12-05T01:45:57.741Z,4.828032
2018-12-05T01:46:10.279Z,3.218688
2018-12-05T01:46:22.652Z,4.828032
2018-12-05T01:46:35.025Z,9.656064
2018-12-05T01:46:47.411Z,9.656064
2018-12-05T01:46:59.796Z,9.656064
2018-12-05T01:47:12.337Z,3.218688
2018-12-05T01:47:24.699Z,8.04672
2018-12-05T01:47:37.070Z,8.04672
2018-12-05T01:47:49.426Z,8.04672
2018-12-05T01:48:01.805Z,8.04672
2018-12-05T01:48:14.192Z,9.656064
2018-12-05T01:48:26.642Z,9.656064
2018-12-05T01:48:39.104Z,9.656064
2018-12-05T01:48:51.805Z,9.656064
2018-12-05T01:49:04.193Z,9.656064
2018-12-05T01:49:16.571Z,6.437376
2018-12-05T01:49:28.938Z,6.437376
2018-12-05T01:49:41.349Z,6.437376
2018-12-05T01:49:53.730Z,6.437376
2018-12-05T01:50:06.207Z,4.828032
2018-12-05T01:50:18.572Z,4.828032
2018-12-05T01:50:30.940Z,8.04672
2018-12-05T01:50:43.330Z,8.04672
2018-12-05T01:50:55.706Z,8.04672
2018-12-05T01:51:08.081Z,6.437376
2018-12-05T01:51:20.437Z,6.437376
2018-12-05T01:51:32.799Z,6.437376
2018-12-05T01:51:45.312Z,6.437376
2018-12-05T01:51:57.718Z,6.437376
2018-12-05T01:52:10.096Z,1.609344
2018-12-05T01:52:22.488Z,1.609344
2018-12-05T01:52:34.877Z,8.04672
2018-12-05T01:52:47.356Z,8.04672
2018-12-05T01:52:59.744Z,9.656064
2018-12-05T01:53:12.113Z,8.04672
2018-12-05T01:53:24.513Z,8.04672
2018-12-05T01:53:36.965Z,8.04672
2018-12-05T01:53:49.372Z,8.04672
2018-12-05T01:54:01.753Z,8.04672
2018-12-05T01:54:14.121Z,3.218688
2018-12-05T01:54:26.493Z,3.218688
2018-12-05T01:54:38.873Z,6.437376
2018-12-05T01:54:51.371Z,6.437376
2018-12-05T01:55:03.760Z,9.656064
2018-12-05T01:55:16.143Z,8.04672
2018-12-05T01:55:28.515Z,8.04672
2018-12-05T01:55:41.023Z,8.04672
2018-12-05T01:55:53.490Z,8.04672
2018-12-05T01:56:05.866Z,1.609344
2018-12-05T01:56:18.299Z,3.218688
2018-12-05T01:56:30.693Z,6.437376
2018-12-05T01:56:43.048Z,6.437376
2018-12-05T01:56:55.512Z,6.437376
2018-12-05T01:57:07.880Z,1.609344
2018-12-05T01:57:20.271Z,3.218688
2018-12-05T01:57:32.646Z,6.437376
2018-12-05T01:57:45.173Z,6.437376
2018-12-05T01:57:57.622Z,6.437376
2018-12-05T01:58:10.165Z,6.437376
2018-12-05T01:58:22.522Z,6.437376
2018-12-05T01:58:34.913Z,6.437376
2018-12-05T01:58:47.272Z,6.437376
2018-12-05T01:58:59.834Z,6.437376
2018-12-05T01:59:12.203Z,6.437376
2018-12-05T01:59:24.587Z,6.437376
2018-12-05T01:59:36.953Z,8.04672
2018-12-05T01:59:49.353Z,8.04672
2018-12-05T02:00:01.727Z,8.04672
2018-12-05T02:00:14.127Z,4.828032
2018-12-05T02:00:26.530Z,6.437376
2018-12-05T02:00:38.923Z,6.437376
2018-12-05T02:00:51.289Z,6.437376
2018-12-05T02:01:03.750Z,6.437376
2018-12-05T02:01:16.129Z,4.828032
2018-12-05T02:01:28.518Z,6.437376
2018-12-05T02:01:40.896Z,6.437376
2018-12-05T02:01:53.266Z,8.04672
2018-12-05T02:02:05.642Z,6.437376
2018-12-05T02:02:18.034Z,6.437376
2018-12-05T02:02:30.430Z,6.437376
2018-12-05T02:02:42.819Z,6.437376
2018-12-05T02:02:55.272Z,6.437376
2018-12-05T02:03:07.640Z,1.609344
2018-12-05T02:03:20.086Z,1.609344
2018-12-05T02:03:32.445Z,1.609344
2018-12-05T02:03:44.815Z,1.609344
2018-12-05T02:03:57.216Z,1.609344
2018-12-05T02:04:09.649Z,6.437376
2018-12-05T02:04:22.015Z,8.04672
2018-12-05T02:04:34.400Z,8.04672
2018-12-05T02:04:46.782Z,8.04672
2018-12-05T02:04:59.141Z,8.04672
2018-12-05T02:05:11.526Z,3.218688
2018-12-05T02:05:23.890Z,3.218688
2018-12-05T02:05:36.263Z,3.218688
2018-12-05T02:05:48.649Z,3.218688
2018-12-05T02:06:01.156Z,3.218688
2018-12-05T02:06:15.003Z,1.609344
2018-12-05T02:06:27.955Z,1.609344
2018-12-05T02:06:40.341Z,1.609344
2018-12-05T02:06:52.715Z,1.609344
2018-12-05T02:07:05.087Z,1.609344
2018-12-05T02:07:17.466Z,1.609344
2018-12-05T02:07:29.836Z,3.218688
2018-12-05T02:07:42.227Z,3.218688
2018-12-05T02:07:54.613Z,3.218688
2018-12-05T02:08:06.988Z,1.609344
2018-12-05T02:08:19.377Z,3.218688
2018-12-05T02:08:31.742Z,3.218688
2018-12-05T02:08:44.112Z,3.218688
2018-12-05T02:08:56.494Z,6.437376
2018-12-05T02:09:08.872Z,8.04672
2018-12-05T02:09:21.259Z,8.04672
2018-12-05T02:09:33.653Z,8.04672
2018-12-05T02:09:46.043Z,12.874752
2018-12-05T02:09:58.414Z,12.874752
2018-12-05T02:10:10.803Z,6.437376
2018-12-05T02:10:23.173Z,6.437376
2018-12-05T02:10:35.540Z,6.437376
2018-12-05T02:10:47.901Z,6.437376
2018-12-05T02:11:00.270Z,8.04672
2018-12-05T02:11:12.651Z,9.656064
2018-12-05T02:11:25.046Z,9.656064
2018-12-05T02:11:37.457Z,9.656064
2018-12-05T02:11:49.813Z,9.656064
2018-12-05T02:12:02.222Z,9.656064
2018-12-05T02:12:14.622Z,1.609344
2018-12-05T02:12:27.059Z,3.218688
2018-12-05T02:12:39.454Z,3.218688
2018-12-05T02:12:51.844Z,3.218688
2018-12-05T02:13:04.233Z,8.04672
2018-12-05T02:13:16.898Z,11.265408
2018-12-05T02:13:30.405Z,11.265408
2018-12-05T02:13:42.786Z,11.265408
2018-12-05T02:13:55.149Z,11.265408
2018-12-05T02:14:07.514Z,6.437376
2018-12-05T02:14:19.896Z,6.437376
2018-12-05T02:14:32.276Z,6.437376
2018-12-05T02:14:44.667Z,6.437376
2018-12-05T02:14:57.156Z,6.437376
2018-12-05T02:15:09.533Z,3.218688
2018-12-05T02:15:21.922Z,4.828032
2018-12-05T02:15:34.293Z,8.04672
2018-12-05T02:15:46.700Z,8.04672
2018-12-05T02:15:59.090Z,8.04672
2018-12-05T02:16:11.466Z,3.218688
2018-12-05T02:16:23.838Z,3.218688
2018-12-05T02:16:36.226Z,6.437376
2018-12-05T02:16:48.602Z,6.437376
2018-12-05T02:17:01.004Z,6.437376
2018-12-05T02:17:13.459Z,4.828032
2018-12-05T02:17:25.844Z,6.437376
2018-12-05T02:17:38.214Z,6.437376
2018-12-05T02:17:50.583Z,8.04672
2018-12-05T02:18:02.945Z,3.218688
2018-12-05T02:18:15.368Z,3.218688
2018-12-05T02:18:27.732Z,8.04672
2018-12-05T02:18:40.151Z,8.04672
2018-12-05T02:18:52.523Z,8.04672
2018-12-05T02:19:04.908Z,3.218688
2018-12-05T02:19:17.280Z,4.828032
2018-12-05T02:19:29.678Z,6.437376
2018-12-05T02:19:42.041Z,6.437376
2018-12-05T02:19:54.444Z,6.437376
2018-12-05T02:20:06.815Z,4.828032
2018-12-05T02:20:19.174Z,8.04672
2018-12-05T02:20:31.834Z,8.04672
2018-12-05T02:20:44.225Z,8.04672
2018-12-05T02:20:56.602Z,8.04672
2018-12-05T02:21:08.992Z,8.04672
2018-12-05T02:21:21.373Z,8.04672
2018-12-05T02:21:33.751Z,8.04672
2018-12-05T02:21:46.164Z,8.04672
2018-12-05T02:21:58.542Z,8.04672
2018-12-05T02:22:10.930Z,3.218688
2018-12-05T02:22:23.330Z,3.218688
2018-12-05T02:22:35.701Z,4.828032
2018-12-05T02:22:48.114Z,6.437376
2018-12-05T02:23:00.477Z,6.437376
2018-12-05T02:23:12.844Z,3.218688
2018-12-05T02:23:25.215Z,6.437376
2018-12-05T02:23:37.682Z,6.437376
2018-12-05T02:23:50.058Z,6.437376
2018-12-05T02:24:02.905Z,8.04672
2018-12-05T02:24:15.282Z,9.656064
2018-12-05T02:24:27.682Z,9.656064
2018-12-05T02:24:40.059Z,9.656064
2018-12-05T02:24:52.437Z,9.656064
2018-12-05T02:25:04.819Z,8.04672
2018-12-05T02:25:17.315Z,9.656064
2018-12-05T02:25:29.845Z,9.656064
2018-12-05T02:25:42.355Z,9.656064
2018-12-05T02:25:54.792Z,9.656064
2018-12-05T02:26:07.318Z,1.609344
2018-12-05T02:26:19.755Z,1.609344
2018-12-05T02:26:32.131Z,3.218688